VLG404Z LIPE-LEBL
Flight info
| Callsign | VLG404Z |
|---|---|
| Flight time | N/A |
| Altitude | 19000 |
| Route | LUPOS M859 EVKIV/N0434F350 DCT EKPAL DCT GOLAS DCT GEKBA DCT VAMTU DCT KOLON DCT GANGU DCT PADKO DCT DIVKO DCT NILDU DCT BISBA |
| Aircraft | A20N/M-SDE2E3FGHIRWXY/LB1 |
Departure
| Time | 2026-05-01 14:56 |
|---|---|
| Airport | Bologna Guglielmo Marconi Airport (LIPE) |
Arrival
| Time | N/A |
|---|---|
| Airport | Josep Tarradellas Barcelona-El Prat Airport (LEBL) |
| Time | Latitude | Longitude | Altitude | Speed | Heading |
|---|---|---|---|---|---|
| 2026-05-01 14:28 | 44.53068 | 11.29318 | 126 ft | 0 kts | 206° |
| 2026-05-01 14:45 | 44.53090 | 11.29331 | 122 ft | 4 kts | 190° |
| 2026-05-01 14:45 | 44.53136 | 11.29309 | 121 ft | 4 kts | 124° |
| 2026-05-01 14:45 | 44.53144 | 11.29290 | 122 ft | 1 kts | 116° |
| 2026-05-01 14:49 | 44.53136 | 11.29328 | 122 ft | 5 kts | 94° |
| 2026-05-01 14:49 | 44.53186 | 11.29321 | 123 ft | 8 kts | 289° |
| 2026-05-01 14:50 | 44.53247 | 11.29146 | 126 ft | 15 kts | 296° |
| 2026-05-01 14:50 | 44.53370 | 11.28804 | 123 ft | 18 kts | 296° |
| 2026-05-01 14:51 | 44.53425 | 11.28649 | 123 ft | 18 kts | 296° |
| 2026-05-01 14:51 | 44.53548 | 11.28309 | 125 ft | 19 kts | 297° |
| 2026-05-01 14:52 | 44.53665 | 11.27985 | 125 ft | 19 kts | 297° |
| 2026-05-01 14:52 | 44.53719 | 11.27836 | 122 ft | 16 kts | 297° |
| 2026-05-01 14:52 | 44.53828 | 11.27532 | 123 ft | 16 kts | 296° |
| 2026-05-01 14:53 | 44.53866 | 11.27425 | 125 ft | 0 kts | 297° |
| 2026-05-01 14:53 | 44.53872 | 11.27408 | 122 ft | 5 kts | 297° |
| 2026-05-01 14:54 | 44.53898 | 11.27351 | 125 ft | 9 kts | 311° |
| 2026-05-01 14:54 | 44.53961 | 11.27286 | 124 ft | 13 kts | 326° |
| 2026-05-01 14:54 | 44.54036 | 11.27219 | 124 ft | 13 kts | 335° |
| 2026-05-01 14:54 | 44.54102 | 11.27266 | 125 ft | 15 kts | 76° |
| 2026-05-01 14:55 | 44.54079 | 11.27382 | 124 ft | 0 kts | 116° |
| 2026-05-01 14:55 | 44.54077 | 11.27388 | 124 ft | 7 kts | 116° |
| 2026-05-01 14:55 | 44.53908 | 11.27859 | 123 ft | 100 kts | 116° |
| 2026-05-01 14:56 | 44.53492 | 11.29024 | 139 ft | 167 kts | 115° |
| 2026-05-01 14:56 | 44.52948 | 11.30634 | 623 ft | 188 kts | 105° |
| 2026-05-01 14:56 | 44.52985 | 11.32530 | 1167 ft | 214 kts | 69° |
| 2026-05-01 14:56 | 44.53843 | 11.34195 | 1712 ft | 201 kts | 36° |
| 2026-05-01 14:57 | 44.55070 | 11.35049 | 1931 ft | 199 kts | 21° |
| 2026-05-01 14:57 | 44.57585 | 11.36367 | 2940 ft | 203 kts | 25° |
| 2026-05-01 14:57 | 44.58871 | 11.37227 | 3695 ft | 204 kts | 28° |
| 2026-05-01 14:58 | 44.60112 | 11.38163 | 4460 ft | 203 kts | 30° |
| 2026-05-01 14:58 | 44.61334 | 11.39125 | 5236 ft | 201 kts | 31° |
| 2026-05-01 14:58 | 44.62542 | 11.40101 | 6007 ft | 202 kts | 32° |
| 2026-05-01 14:58 | 44.63817 | 11.41149 | 6807 ft | 220 kts | 33° |
| 2026-05-01 14:59 | 44.65174 | 11.42281 | 7510 ft | 239 kts | 37° |
| 2026-05-01 14:59 | 44.66323 | 11.44110 | 8050 ft | 264 kts | 62° |
| 2026-05-01 14:59 | 44.66799 | 11.46711 | 8444 ft | 296 kts | 86° |
| 2026-05-01 14:59 | 44.66418 | 11.49708 | 8851 ft | 329 kts | 108° |
| 2026-05-01 15:00 | 44.63168 | 11.54633 | 9626 ft | 368 kts | 148° |
| 2026-05-01 15:00 | 44.60686 | 11.55752 | 10021 ft | 381 kts | 168° |
| 2026-05-01 15:00 | 44.58001 | 11.55685 | 10406 ft | 391 kts | 187° |
| 2026-05-01 15:01 | 44.55400 | 11.54405 | 10764 ft | 400 kts | 207° |
| 2026-05-01 15:01 | 44.53189 | 11.52064 | 11131 ft | 405 kts | 226° |
| 2026-05-01 15:01 | 44.51548 | 11.48835 | 11505 ft | 406 kts | 245° |
| 2026-05-01 15:01 | 44.50683 | 11.45130 | 11864 ft | 406 kts | 263° |
| 2026-05-01 15:02 | 44.50641 | 11.41185 | 12243 ft | 400 kts | 282° |
| 2026-05-01 15:02 | 44.50808 | 11.39948 | 12363 ft | 398 kts | 288° |
| 2026-05-01 15:02 | 44.52417 | 11.33925 | 13004 ft | 399 kts | 294° |
| 2026-05-01 15:02 | 44.53127 | 11.30094 | 13402 ft | 406 kts | 284° |
| 2026-05-01 15:03 | 44.53419 | 11.26159 | 13789 ft | 412 kts | 276° |
| 2026-05-01 15:03 | 44.53432 | 11.22121 | 14191 ft | 416 kts | 272° |
| 2026-05-01 15:03 | 44.53300 | 11.18047 | 14541 ft | 417 kts | 270° |
| 2026-05-01 15:03 | 44.53115 | 11.14015 | 14895 ft | 419 kts | 269° |
| 2026-05-01 15:04 | 44.52915 | 11.09914 | 15262 ft | 420 kts | 269° |
| 2026-05-01 15:04 | 44.52721 | 11.05867 | 15637 ft | 421 kts | 269° |
| 2026-05-01 15:04 | 44.52529 | 11.01749 | 16009 ft | 422 kts | 269° |
| 2026-05-01 15:04 | 44.52339 | 10.97634 | 16391 ft | 424 kts | 269° |
| 2026-05-01 15:05 | 44.52152 | 10.93532 | 16775 ft | 425 kts | 269° |
| 2026-05-01 15:05 | 44.51961 | 10.89382 | 17164 ft | 427 kts | 269° |
| 2026-05-01 15:05 | 44.51769 | 10.85206 | 17556 ft | 428 kts | 269° |
| 2026-05-01 15:05 | 44.51575 | 10.81062 | 17952 ft | 430 kts | 269° |
| 2026-05-01 15:06 | 44.51377 | 10.76845 | 18365 ft | 431 kts | 269° |
| 2026-05-01 15:06 | 44.51179 | 10.72659 | 18744 ft | 434 kts | 269° |
| 2026-05-01 15:06 | 44.50977 | 10.68427 | 19091 ft | 435 kts | 269° |
| 2026-05-01 15:06 | 44.50772 | 10.64184 | 19452 ft | 437 kts | 269° |
| 2026-05-01 15:07 | 44.50567 | 10.59963 | 19801 ft | 439 kts | 269° |
| 2026-05-01 15:07 | 44.50359 | 10.55681 | 20166 ft | 440 kts | 269° |
| 2026-05-01 15:07 | 44.50151 | 10.51385 | 20528 ft | 441 kts | 269° |
| 2026-05-01 15:07 | 44.49945 | 10.47116 | 20899 ft | 443 kts | 269° |
| 2026-05-01 15:08 | 44.49735 | 10.42799 | 21269 ft | 445 kts | 269° |
| 2026-05-01 15:08 | 44.49521 | 10.38453 | 21655 ft | 447 kts | 269° |
| 2026-05-01 15:08 | 44.49307 | 10.34144 | 22037 ft | 449 kts | 269° |
| 2026-05-01 15:08 | 44.49087 | 10.29759 | 22432 ft | 451 kts | 269° |
| 2026-05-01 15:09 | 44.48868 | 10.25358 | 22823 ft | 452 kts | 269° |
| 2026-05-01 15:09 | 44.48652 | 10.20998 | 23217 ft | 455 kts | 269° |
| 2026-05-01 15:09 | 44.48431 | 10.16538 | 23632 ft | 457 kts | 270° |
| 2026-05-01 15:09 | 44.48205 | 10.12069 | 24015 ft | 459 kts | 269° |
| 2026-05-01 15:10 | 44.47976 | 10.07623 | 24356 ft | 462 kts | 269° |
| 2026-05-01 15:10 | 44.47505 | 9.98641 | 25048 ft | 465 kts | 269° |
| 2026-05-01 15:10 | 44.47264 | 9.94095 | 25401 ft | 468 kts | 269° |
| 2026-05-01 15:11 | 44.47020 | 9.89525 | 25764 ft | 470 kts | 269° |
| 2026-05-01 15:11 | 44.46527 | 9.80364 | 26496 ft | 474 kts | 269° |
| 2026-05-01 15:11 | 44.46279 | 9.75801 | 26868 ft | 476 kts | 269° |
| 2026-05-01 15:12 | 44.46023 | 9.71142 | 27250 ft | 478 kts | 269° |
| 2026-05-01 15:12 | 44.45501 | 9.61855 | 28023 ft | 483 kts | 267° |
| 2026-05-01 15:12 | 44.45072 | 9.57155 | 28417 ft | 485 kts | 265° |
| 2026-05-01 15:13 | 44.43767 | 9.43161 | 29636 ft | 483 kts | 265° |
| 2026-05-01 15:14 | 44.42892 | 9.33849 | 30462 ft | 481 kts | 265° |
| 2026-05-01 15:14 | 44.42452 | 9.29208 | 30813 ft | 479 kts | 265° |
| 2026-05-01 15:14 | 44.41572 | 9.19989 | 31538 ft | 477 kts | 265° |
| 2026-05-01 15:15 | 44.40691 | 9.10847 | 32287 ft | 474 kts | 265° |
| 2026-05-01 15:15 | 44.39808 | 9.01757 | 33052 ft | 470 kts | 265° |
| 2026-05-01 15:16 | 44.38940 | 8.92887 | 33837 ft | 465 kts | 265° |
| 2026-05-01 15:16 | 44.38059 | 8.83972 | 34604 ft | 460 kts | 265° |
| 2026-05-01 15:17 | 44.37324 | 8.76567 | 34825 ft | 465 kts | 265° |
| 2026-05-01 15:18 | 44.35978 | 8.63165 | 34923 ft | 464 kts | 264° |
| 2026-05-01 15:19 | 44.34160 | 8.45321 | 35075 ft | 463 kts | 264° |
| 2026-05-01 15:19 | 44.33247 | 8.36461 | 35306 ft | 462 kts | 264° |
| 2026-05-01 15:19 | 44.32786 | 8.32001 | 35305 ft | 462 kts | 264° |
| 2026-05-01 15:20 | 44.31004 | 8.18832 | 35303 ft | 466 kts | 250° |
| 2026-05-01 15:21 | 44.28055 | 8.10705 | 35294 ft | 468 kts | 244° |
| 2026-05-01 15:21 | 44.24991 | 8.02727 | 35289 ft | 467 kts | 245° |
| 2026-05-01 15:22 | 44.20572 | 7.90603 | 35292 ft | 467 kts | 246° |
| 2026-05-01 15:22 | 44.17660 | 7.82547 | 35298 ft | 467 kts | 246° |
| 2026-05-01 15:23 | 44.14728 | 7.74461 | 35304 ft | 466 kts | 246° |
| 2026-05-01 15:23 | 44.11801 | 7.66423 | 35319 ft | 467 kts | 246° |
| 2026-05-01 15:24 | 44.08845 | 7.58326 | 35320 ft | 467 kts | 246° |
| 2026-05-01 15:24 | 44.05915 | 7.50324 | 35317 ft | 467 kts | 246° |
| 2026-05-01 15:25 | 44.02954 | 7.42262 | 35316 ft | 466 kts | 246° |
| 2026-05-01 15:25 | 44.00009 | 7.34269 | 35317 ft | 465 kts | 245° |
| 2026-05-01 15:26 | 43.97064 | 7.26294 | 35308 ft | 464 kts | 245° |
| 2026-05-01 15:26 | 43.94122 | 7.18353 | 35299 ft | 463 kts | 245° |
| 2026-05-01 15:27 | 43.91175 | 7.10418 | 35295 ft | 463 kts | 245° |
| 2026-05-01 15:28 | 43.86739 | 6.98520 | 35308 ft | 462 kts | 245° |
| 2026-05-01 15:28 | 43.83792 | 6.90645 | 35286 ft | 462 kts | 245° |
| 2026-05-01 15:29 | 43.79349 | 6.78813 | 35300 ft | 461 kts | 245° |
| 2026-05-01 15:30 | 43.73420 | 6.63097 | 35289 ft | 461 kts | 245° |
| 2026-05-01 15:31 | 43.64516 | 6.39663 | 35287 ft | 460 kts | 244° |
| 2026-05-01 15:32 | 43.58538 | 6.24039 | 35289 ft | 460 kts | 244° |
| 2026-05-01 15:34 | 43.49551 | 6.00712 | 35278 ft | 459 kts | 244° |